Time;durP1;ratioP1;P1;durP2;ratioP2;P2;SDS_P1;SDS_P2;PMS_P1;PMS_P2;Temp;Humidity;BMP_temperature;BMP_pressure;BME280_temperature;BME280_humidity;BME280_pressure;Samples;Min_cycle;Max_cycle;Signal;HPM_P1;HPM_P2
2022/01/11 00:00:09;;;;;;;49.10;28.10;;;;;;;-1.63;65.30;101929.29;107200;1279;23339;-87
2022/01/11 00:02:39;;;;;;;46.30;29.10;;;;;;;-1.63;65.29;101924.81;108616;1278;23111;-87
2022/01/11 00:05:06;;;;;;;49.20;27.10;;;;;;;-1.65;65.33;101925.19;108054;1271;22485;-87
2022/01/11 00:07:35;;;;;;;43.40;27.10;;;;;;;-1.61;65.35;101923.34;107179;1271;24211;-88
2022/01/11 00:10:06;;;;;;;44.40;26.00;;;;;;;-1.60;65.28;101931.38;106946;1271;24293;-87
2022/01/11 00:12:34;;;;;;;43.50;26.70;;;;;;;-1.58;65.29;101929.21;107232;1271;23668;-87
2022/01/11 00:15:00;;;;;;;54.20;27.80;;;;;;;-1.63;65.12;101930.50;107412;1271;24429;-87
2022/01/11 00:17:28;;;;;;;47.60;28.30;;;;;;;-1.66;65.11;101931.52;106937;1274;25299;-86
2022/01/11 00:19:54;;;;;;;43.50;26.20;;;;;;;-1.67;65.12;101930.20;106910;1271;22487;-84
2022/01/11 00:22:27;;;;;;;43.40;25.70;;;;;;;-1.72;65.06;101930.91;106756;1271;25359;-84
2022/01/11 00:24:53;;;;;;;46.80;27.20;;;;;;;-1.77;65.19;101929.08;106534;1273;22566;-80
2022/01/11 00:27:19;;;;;;;47.40;26.60;;;;;;;-1.78;65.43;101929.66;106239;1271;22557;-84
2022/01/11 00:29:50;;;;;;;43.40;25.30;;;;;;;-1.82;65.18;101933.22;106596;1270;22571;-87
2022/01/11 00:32:37;;;;;;;44.90;26.20;;;;;;;-1.88;65.29;101934.73;106737;1270;22550;-86
2022/01/11 00:35:10;;;;;;;40.40;24.40;;;;;;;-1.92;65.44;101934.60;106378;1279;22617;-86
2022/01/11 00:37:37;;;;;;;42.60;25.70;;;;;;;-1.93;65.50;101938.39;106611;1276;22565;-87
2022/01/11 00:40:06;;;;;;;44.60;26.70;;;;;;;-1.96;65.41;101943.33;106435;1276;22545;-85
2022/01/11 00:42:32;;;;;;;42.60;25.40;;;;;;;-1.99;65.71;101936.59;106245;1277;25625;-87
2022/01/11 00:44:59;;;;;;;45.60;26.10;;;;;;;-1.97;65.77;101933.75;106421;1277;22560;-87
2022/01/11 00:47:26;;;;;;;39.10;24.80;;;;;;;-1.99;65.53;101942.63;106092;1277;25428;-88
2022/01/11 00:49:54;;;;;;;40.70;24.30;;;;;;;-2.03;65.53;101939.47;106332;1277;24166;-85
2022/01/11 00:52:20;;;;;;;38.50;24.10;;;;;;;-2.04;65.70;101938.15;106126;1276;24202;-85
2022/01/11 00:54:46;;;;;;;39.10;25.00;;;;;;;-2.09;65.45;101940.75;106106;1277;22543;-84
2022/01/11 00:57:12;;;;;;;37.60;23.00;;;;;;;-2.14;65.60;101945.77;106092;1276;22765;-87
2022/01/11 00:59:39;;;;;;;38.50;24.40;;;;;;;-2.14;65.94;101943.91;106568;1271;24309;-86
2022/01/11 01:02:05;;;;;;;40.00;24.70;;;;;;;-2.14;65.92;101945.61;106914;1271;22571;-85
2022/01/11 01:04:32;;;;;;;45.80;26.90;;;;;;;-2.15;66.02;101944.86;106568;1271;25252;-81
2022/01/11 01:07:00;;;;;;;52.20;29.80;;;;;;;-2.15;65.78;101947.13;106462;1271;22590;-79
2022/01/11 01:09:34;;;;;;;44.80;26.30;;;;;;;-2.15;65.82;101943.48;106400;1271;22570;-80
2022/01/11 01:12:01;;;;;;;45.00;25.90;;;;;;;-2.20;65.88;101935.71;106567;1271;22828;-88
2022/01/11 01:14:29;;;;;;;44.70;26.70;;;;;;;-2.17;65.95;101939.69;107336;1271;22521;-88
2022/01/11 01:16:57;;;;;;;44.80;27.70;;;;;;;-2.17;65.86;101937.84;107194;1276;22636;-90
2022/01/11 01:19:30;;;;;;;45.50;26.80;;;;;;;-2.19;65.71;101939.02;107305;1276;22581;-88
2022/01/11 01:21:57;;;;;;;42.80;26.00;;;;;;;-2.26;65.80;101942.57;108429;1276;22923;-89
2022/01/11 01:24:23;;;;;;;42.80;25.90;;;;;;;-2.24;66.10;101943.41;109194;1276;22637;-88
2022/01/11 01:26:50;;;;;;;43.70;26.40;;;;;;;-2.21;66.15;101945.84;109190;1276;22600;-86
2022/01/11 01:29:16;;;;;;;42.40;25.40;;;;;;;-2.20;66.11;101950.71;109070;1276;22785;-88
2022/01/11 01:31:42;;;;;;;45.90;26.60;;;;;;;-2.18;66.09;101947.41;109070;1276;22678;-87
2022/01/11 01:34:10;;;;;;;39.90;25.80;;;;;;;-2.14;66.03;101954.29;109249;1276;22582;-87
2022/01/11 01:36:36;;;;;;;44.20;25.00;;;;;;;-2.13;66.03;101953.30;108256;1276;22591;-89
2022/01/11 01:39:05;;;;;;;42.30;25.90;;;;;;;-2.09;66.11;101955.75;107608;1276;25241;-88
2022/01/11 01:41:32;;;;;;;40.30;24.00;;;;;;;-2.09;65.96;101960.29;106363;1274;25973;-89
2022/01/11 01:44:02;;;;;;;43.60;24.30;;;;;;;-2.10;65.94;101963.33;106817;1271;22849;-85
2022/01/11 01:46:29;;;;;;;43.50;24.10;;;;;;;-2.16;65.83;101958.61;106266;1271;24112;-84
2022/01/11 01:48:59;;;;;;;41.60;25.30;;;;;;;-2.16;65.96;101963.73;106518;1271;24449;-84
2022/01/11 01:51:46;;;;;;;39.50;24.70;;;;;;;-2.22;66.03;101959.72;109219;1276;22639;-91
2022/01/11 01:56:59;;;;;;;37.70;23.00;;;;;;;-2.20;65.90;101973.48;109586;1263;22547;-90
2022/01/11 02:00:12;;;;;;;40.80;22.60;;;;;;;-2.24;65.98;101977.20;109636;1262;22871;31
2022/01/11 02:06:18;;;;;;;41.10;24.50;;;;;;;-2.38;65.99;101981.44;108726;1274;22926;-91
2022/01/11 02:11:34;;;;;;;38.30;24.50;;;;;;;-2.32;66.15;101982.59;108901;1271;22661;-91
2022/01/11 02:14:01;;;;;;;41.50;25.90;;;;;;;-2.35;66.10;101980.27;107705;1287;23846;-89
2022/01/11 02:16:28;;;;;;;44.80;27.40;;;;;;;-2.34;66.00;101985.19;107142;1286;22783;-90
2022/01/11 02:18:56;;;;;;;45.00;26.20;;;;;;;-2.30;65.92;101985.29;106246;1287;24017;-87
2022/01/11 02:21:24;;;;;;;49.10;27.00;;;;;;;-2.27;66.05;101986.34;105757;1287;25403;-88
2022/01/11 02:23:51;;;;;;;41.20;26.90;;;;;;;-2.25;65.84;101989.26;105348;1287;23777;-89
2022/01/11 02:26:21;;;;;;;42.00;24.80;;;;;;;-2.25;65.73;101986.80;104964;1287;25224;-84
2022/01/11 02:28:48;;;;;;;42.30;25.70;;;;;;;-2.24;65.92;101988.09;105054;1287;23167;-85
2022/01/11 02:31:14;;;;;;;41.00;26.20;;;;;;;-2.25;65.69;101992.20;105047;1289;26042;-84
2022/01/11 02:33:49;;;;;;;41.90;26.40;;;;;;;-2.30;65.78;101990.11;105044;1287;25333;-82
2022/01/11 02:36:44;;;;;;;44.40;24.00;;;;;;;-2.32;66.06;101993.06;105823;1287;22565;-83
2022/01/11 02:39:13;;;;;;;41.20;24.70;;;;;;;-2.31;66.07;102000.55;106611;1282;22593;-78
2022/01/11 02:41:56;;;;;;;42.80;25.80;;;;;;;-2.35;65.76;102001.98;105732;1282;23824;-77
2022/01/11 02:44:30;;;;;;;37.30;24.90;;;;;;;-2.40;65.86;102002.37;107860;1282;22584;-87
2022/01/11 02:46:57;;;;;;;40.00;25.30;;;;;;;-2.40;66.03;102008.21;108397;1282;22719;-85
2022/01/11 02:49:27;;;;;;;39.90;24.80;;;;;;;-2.40;66.04;102008.24;108363;1282;24927;-82
2022/01/11 02:51:59;;;;;;;41.90;26.40;;;;;;;-2.40;66.08;102013.08;107544;1282;22587;-81
2022/01/11 02:54:26;;;;;;;42.20;25.10;;;;;;;-2.42;66.07;102008.96;106346;1283;22568;-84
2022/01/11 02:57:02;;;;;;;;;;;;;;;-2.40;66.13;102012.22;105421;1282;25427;-83
2022/01/11 02:59:28;;;;;;;40.10;24.80;;;;;;;-2.40;66.06;102011.98;105357;1283;22614;-84
2022/01/11 03:01:54;;;;;;;37.80;24.70;;;;;;;-2.42;66.21;102013.28;105228;1282;25393;-82
2022/01/11 03:04:21;;;;;;;44.90;25.90;;;;;;;-2.41;66.36;102016.27;105346;1282;22660;-80
2022/01/11 03:06:48;;;;;;;40.40;24.70;;;;;;;-2.40;66.18;102016.14;105913;1282;23364;-81
2022/01/11 03:09:17;;;;;;;40.70;24.50;;;;;;;-2.42;66.26;102019.79;106429;1282;25329;-78
2022/01/11 03:11:46;;;;;;;38.90;24.60;;;;;;;-2.46;66.30;102015.73;106243;1284;22561;-81
2022/01/11 03:14:13;;;;;;;42.30;25.10;;;;;;;-2.42;66.37;102020.17;106854;1282;24341;-82
2022/01/11 03:17:05;;;;;;;39.90;23.40;;;;;;;-2.41;66.36;102014.36;106854;1282;22685;-82
2022/01/11 03:19:34;;;;;;;37.30;23.30;;;;;;;-2.42;66.29;102017.23;107375;1282;22714;-82
2022/01/11 03:22:01;;;;;;;39.30;24.70;;;;;;;-2.48;66.16;102022.51;106174;1282;22572;-82
2022/01/11 03:24:28;;;;;;;41.40;24.00;;;;;;;-2.51;66.30;102023.02;105032;1282;22560;-82
2022/01/11 03:27:29;;;;;;;38.20;24.10;;;;;;;-2.52;66.41;102025.69;105614;1283;22594;-82
2022/01/11 03:29:55;;;;;;;41.10;25.00;;;;;;;-2.51;66.47;102028.73;105345;1285;25384;-86
2022/01/11 03:32:22;;;;;;;37.90;24.20;;;;;;;-2.52;66.36;102031.92;105575;1282;23666;-86
2022/01/11 03:35:09;;;;;;;36.60;23.40;;;;;;;-2.51;66.53;102031.31;106251;1282;232780;-86
2022/01/11 03:37:37;;;;;;;40.40;24.40;;;;;;;-2.53;66.43;102035.60;106982;1282;22505;-89
2022/01/11 03:40:07;;;;;;;47.10;27.20;;;;;;;-2.55;66.54;102032.21;107000;1282;23009;-85
2022/01/11 03:42:33;;;;;;;43.00;26.50;;;;;;;-2.51;66.46;102034.77;106473;1282;22558;-83
2022/01/11 03:45:03;;;;;;;42.90;26.30;;;;;;;-2.54;66.22;102034.00;106252;1282;25383;-83
2022/01/11 03:47:35;;;;;;;39.90;25.70;;;;;;;-2.50;66.55;102032.34;105798;1282;24225;-87
2022/01/11 03:50:09;;;;;;;41.70;25.80;;;;;;;-2.47;66.48;102032.77;105553;1282;22495;-85
2022/01/11 03:52:36;;;;;;;39.10;25.50;;;;;;;-2.49;66.23;102033.30;105286;1282;23989;-85
2022/01/11 03:55:10;;;;;;;41.20;27.20;;;;;;;-2.48;66.43;102038.71;105304;1287;22599;-85
2022/01/11 03:57:42;;;;;;;44.60;27.30;;;;;;;-2.45;66.44;102043.59;105357;1284;23990;-87
2022/01/11 04:00:15;;;;;;;44.10;27.00;;;;;;;-2.47;66.28;102045.34;104575;1291;22590;-85
2022/01/11 04:02:43;;;;;;;39.20;25.10;;;;;;;-2.49;66.29;102051.27;105025;1291;22544;-85
2022/01/11 04:05:13;;;;;;;44.60;26.70;;;;;;;-2.50;66.38;102045.86;105976;1290;23087;-84
2022/01/11 04:07:42;;;;;;;42.20;26.30;;;;;;;-2.54;66.36;102046.79;105971;1293;22512;-83
2022/01/11 04:10:09;;;;;;;36.20;23.80;;;;;;;-2.57;66.31;102049.13;104964;1291;22626;-87
2022/01/11 04:12:36;;;;;;;42.50;24.90;;;;;;;-2.57;66.60;102053.44;104407;1290;22723;-83
2022/01/11 04:15:03;;;;;;;45.30;25.90;;;;;;;-2.56;66.59;102058.86;104825;1291;24118;-82
2022/01/11 04:17:30;;;;;;;42.10;25.30;;;;;;;-2.58;66.48;102061.86;104762;1294;22555;-83
2022/01/11 04:19:57;;;;;;;40.60;24.90;;;;;;;-2.57;66.44;102061.59;104393;1291;24513;-85
2022/01/11 04:22:24;;;;;;;34.50;22.40;;;;;;;-2.60;66.30;102062.38;104366;1291;24364;-85
2022/01/11 04:24:53;;;;;;;36.20;23.60;;;;;;;-2.63;66.46;102067.73;104623;1291;22557;-88
2022/01/11 04:27:20;;;;;;;40.70;24.30;;;;;;;-2.66;66.51;102072.34;105167;1291;25321;-89
2022/01/11 04:29:46;;;;;;;38.70;23.80;;;;;;;-2.68;66.58;102076.98;104799;1292;23949;-86
2022/01/11 04:32:13;;;;;;;37.20;24.10;;;;;;;-2.73;66.73;102073.83;105349;1290;22652;-88
2022/01/11 04:34:41;;;;;;;43.60;26.50;;;;;;;-2.73;66.64;102079.23;105900;1290;22679;-90
2022/01/11 04:37:07;;;;;;;38.00;24.40;;;;;;;-2.73;66.84;102080.29;106758;1283;22568;-90
2022/01/11 04:39:35;;;;;;;39.10;25.30;;;;;;;-2.73;66.93;102078.37;107077;1282;22645;-90
2022/01/11 04:42:03;;;;;;;40.80;24.20;;;;;;;-2.69;66.86;102078.43;106577;1282;22569;-84
2022/01/11 04:44:29;;;;;;;34.30;22.60;;;;;;;-2.71;66.72;102081.09;108159;1282;24457;-84
2022/01/11 04:46:56;;;;;;;42.30;24.90;;;;;;;-2.71;66.90;102084.04;107644;1282;22957;-87
2022/01/11 04:49:22;;;;;;;41.10;27.60;;;;;;;-2.68;66.69;102081.45;107867;1283;22814;-84
2022/01/11 04:51:50;;;;;;;45.30;28.80;;;;;;;-2.63;66.71;102083.23;107714;1283;22552;-85
2022/01/11 04:54:17;;;;;;;40.30;25.90;;;;;;;-2.56;66.72;102083.38;108103;1282;22601;-82
2022/01/11 04:56:44;;;;;;;39.90;25.10;;;;;;;-2.52;66.49;102084.86;107864;1284;23970;-80
2022/01/11 04:59:11;;;;;;;42.60;26.60;;;;;;;-2.49;66.51;102082.30;106132;1284;25404;-80
2022/01/11 05:02:01;;;;;;;38.40;25.80;;;;;;;-2.47;66.40;102082.44;105362;1284;22688;-79
2022/01/11 05:04:28;;;;;;;39.10;24.70;;;;;;;-2.45;66.44;102081.92;105404;1285;24288;-80
2022/01/11 05:06:55;;;;;;;44.90;28.20;;;;;;;-2.44;66.29;102081.99;105261;1287;25273;-77
2022/01/11 05:09:22;;;;;;;40.80;25.60;;;;;;;-2.49;66.21;102078.02;105832;1287;25269;-84
2022/01/11 05:11:50;;;;;;;41.90;26.40;;;;;;;-2.49;66.29;102076.30;106137;1285;22568;-80
2022/01/11 05:14:16;;;;;;;39.70;25.50;;;;;;;-2.47;66.52;102077.93;105672;1284;24282;-85
2022/01/11 05:16:46;;;;;;;43.70;26.50;;;;;;;-2.49;66.21;102081.81;105125;1287;22561;-85
2022/01/11 05:19:12;;;;;;;46.30;28.00;;;;;;;-2.51;66.15;102082.33;105547;1285;23853;-85
2022/01/11 05:21:43;;;;;;;40.40;25.10;;;;;;;-2.58;65.95;102080.83;105711;1287;25262;-83
2022/01/11 05:24:10;;;;;;;43.20;26.90;;;;;;;-2.63;66.31;102079.61;105664;1286;22576;-81
2022/01/11 05:26:38;;;;;;;41.00;25.60;;;;;;;-2.61;66.52;102079.58;105423;1282;26541;-87
2022/01/11 05:29:26;;;;;;;43.50;27.40;;;;;;;-2.61;66.28;102075.80;105690;1284;22685;-86
2022/01/11 05:31:56;;;;;;;40.00;24.70;;;;;;;-2.63;66.41;102077.73;104617;1291;24112;-86
2022/01/11 05:34:27;;;;;;;44.40;25.60;;;;;;;-2.65;66.32;102077.19;104454;1293;22556;-86
2022/01/11 05:36:53;;;;;;;41.50;26.30;;;;;;;-2.70;66.27;102081.83;104780;1290;22798;-84
2022/01/11 05:43:48;;;;;;;41.50;25.00;;;;;;;-2.82;66.62;102094.11;104433;1294;24263;-85
2022/01/11 05:46:15;;;;;;;40.20;25.50;;;;;;;-2.82;66.57;102100.27;104502;1294;22558;-85
2022/01/11 05:48:44;;;;;;;44.40;28.10;;;;;;;-2.84;66.71;102101.86;104324;1294;25340;-77
2022/01/11 05:51:15;;;;;;;42.00;25.30;;;;;;;-2.85;66.75;102105.96;104969;1288;24447;-88
2022/01/11 05:54:25;;;;;;;39.00;25.60;;;;;;;-2.82;67.01;102108.89;105714;1291;22880;-87
2022/01/11 05:57:14;;;;;;;39.10;24.90;;;;;;;-2.83;66.79;102109.74;106895;1284;22582;-84
2022/01/11 05:59:41;;;;;;;43.90;25.80;;;;;;;-2.82;66.86;102109.10;107107;1284;22673;-84
2022/01/11 06:02:08;;;;;;;44.00;26.90;;;;;;;-2.79;66.81;102108.48;107368;1284;23353;-85
2022/01/11 06:04:35;;;;;;;41.30;26.50;;;;;;;-2.78;66.73;102114.06;106171;1287;22607;-87
2022/01/11 06:07:04;;;;;;;44.80;28.40;;;;;;;-2.76;66.62;102123.02;105145;1287;22629;-88
2022/01/11 06:09:31;;;;;;;47.20;29.10;;;;;;;-2.78;66.48;102126.19;105629;1288;22565;-87
2022/01/11 06:11:58;;;;;;;44.90;27.70;;;;;;;-2.79;66.55;102131.91;104734;1294;22544;-86
2022/01/11 06:14:24;;;;;;;45.30;28.20;;;;;;;-2.78;66.68;102134.59;104455;1292;22623;-87
2022/01/11 06:16:52;;;;;;;46.20;29.60;;;;;;;-2.69;67.02;102137.09;105540;1294;23664;-86
2022/01/11 06:19:21;;;;;;;50.40;28.90;;;;;;;-2.60;66.99;102142.42;106310;1297;22505;-82
2022/01/11 06:21:58;;;;;;;50.20;29.40;;;;;;;-2.61;66.58;102144.60;106246;1294;22627;-88
2022/01/11 06:24:26;;;;;;;47.30;26.50;;;;;;;-2.65;66.46;102150.16;106829;1294;22598;-85
2022/01/11 06:26:54;;;;;;;42.80;28.10;;;;;;;-2.69;66.61;102153.34;107244;1294;22597;-85
2022/01/11 06:29:22;;;;;;;43.60;25.90;;;;;;;-2.68;66.86;102154.61;107199;1291;22586;-86
2022/01/11 06:31:50;;;;;;;44.60;27.40;;;;;;;-2.64;66.67;102154.90;107771;1288;22726;-87
2022/01/11 06:35:13;;;;;;;;;;;;;;;;;;;;;
2022/01/11 06:37:42;;;;;;;42.10;26.20;;;;;;;-2.66;66.54;102172.84;107301;1289;22665;-86
2022/01/11 06:40:16;;;;;;;43.20;24.70;;;;;;;-2.70;66.11;102185.16;107150;1290;22544;-86
2022/01/11 06:42:47;;;;;;;41.90;23.50;;;;;;;-2.76;66.11;102190.27;107045;1290;22582;-85
2022/01/11 06:45:16;;;;;;;47.90;26.40;;;;;;;-2.86;65.92;102194.86;108072;1284;22578;-87
2022/01/11 06:47:43;;;;;;;46.70;26.10;;;;;;;-2.99;65.93;102203.36;107431;1287;22653;-86
2022/01/11 06:50:11;;;;;;;43.80;26.40;;;;;;;-3.01;66.20;102208.80;107168;1293;22354;-87
2022/01/11 06:52:38;;;;;;;39.50;24.20;;;;;;;-3.03;66.15;102210.48;107428;1293;22560;-85
2022/01/11 06:55:08;;;;;;;45.30;24.20;;;;;;;-3.06;66.31;102213.36;106764;1294;22632;-86
2022/01/11 06:57:39;;;;;;;43.70;25.90;;;;;;;-3.13;66.39;102214.79;106677;1294;22633;-89
2022/01/11 07:00:08;;;;;;;46.10;27.20;;;;;;;-3.12;66.53;102219.98;105210;1294;22740;-89
2022/01/11 07:02:36;;;;;;;44.80;26.30;;;;;;;-3.11;66.57;102223.73;104555;1297;25546;-87
2022/01/11 07:05:22;;;;;;;45.70;25.90;;;;;;;-3.17;66.40;102228.08;104652;1291;22573;-87
2022/01/11 07:07:50;;;;;;;48.10;29.00;;;;;;;-3.27;66.64;102230.26;105000;1291;22567;-86
2022/01/11 07:10:18;;;;;;;53.70;32.10;;;;;;;-3.21;67.13;102234.84;104975;1290;22562;-88
2022/01/11 07:12:45;;;;;;;53.00;29.10;;;;;;;-3.16;66.87;102236.23;105039;1290;25418;-87
2022/01/11 07:15:12;;;;;;;49.00;27.80;;;;;;;-3.12;67.02;102239.31;105412;1284;22617;-88
2022/01/11 07:17:38;;;;;;;48.00;26.80;;;;;;;-3.07;67.08;102243.16;105707;1287;22760;-88
2022/01/11 07:20:07;;;;;;;48.20;27.30;;;;;;;-3.02;67.07;102246.40;105453;1287;22574;-87
2022/01/11 07:22:37;;;;;;;48.50;27.20;;;;;;;-3.01;66.94;102247.05;105343;1290;22989;-85
2022/01/11 07:25:08;;;;;;;41.90;25.80;;;;;;;-2.94;67.21;102248.56;105483;1293;22515;-84
2022/01/11 07:27:35;;;;;;;47.10;25.90;;;;;;;-2.92;67.15;102249.25;107219;1291;22523;-85
2022/01/11 07:30:05;;;;;;;42.90;24.10;;;;;;;-2.86;66.95;102251.73;106992;1290;22717;-85
2022/01/11 07:32:35;;;;;;;41.80;23.70;;;;;;;-2.90;66.87;102251.30;106293;1297;22612;-84
2022/01/11 07:35:04;;;;;;;43.50;24.70;;;;;;;-2.92;66.96;102256.48;106144;1298;22574;-86
2022/01/11 07:37:31;;;;;;;47.80;25.10;;;;;;;-2.95;67.09;102253.00;105452;1297;25251;-86
2022/01/11 07:40:01;;;;;;;45.40;27.00;;;;;;;-2.93;67.15;102259.90;105683;1293;22693;-83
2022/01/11 07:42:29;;;;;;;41.20;23.30;;;;;;;-2.91;67.43;102256.61;106745;1287;22659;-87
2022/01/11 07:45:10;;;;;;;45.20;24.50;;;;;;;-2.86;67.76;102254.16;106290;1287;25333;-91
2022/01/11 07:47:37;;;;;;;40.10;22.60;;;;;;;-2.80;67.76;102255.30;105787;1287;24808;-86
2022/01/11 07:50:06;;;;;;;46.70;24.10;;;;;;;-2.74;68.02;102252.32;105372;1287;22511;-87
2022/01/11 07:52:33;;;;;;;53.50;29.70;;;;;;;-2.68;68.10;102245.52;105179;1292;22588;-87
2022/01/11 07:55:01;;;;;;;48.90;27.80;;;;;;;-2.57;68.21;102246.52;105016;1294;25980;-86
2022/01/11 07:57:28;;;;;;;44.20;24.70;;;;;;;-2.45;68.11;102246.68;105080;1287;25268;-86
2022/01/11 07:59:55;;;;;;;45.50;26.00;;;;;;;-2.39;68.09;102249.37;104605;1294;22616;-87
2022/01/11 08:02:42;;;;;;;42.00;24.60;;;;;;;-2.28;68.19;102251.25;104521;1293;26519;-85
2022/01/11 08:05:21;;;;;;;44.30;24.70;;;;;;;-2.18;68.11;102257.59;103911;1300;25402;-83
2022/01/11 08:07:53;;;;;;;44.90;23.80;;;;;;;-2.13;68.04;102262.48;103985;1300;25391;-83
2022/01/11 08:10:25;;;;;;;47.20;26.50;;;;;;;-2.11;67.99;102257.91;103804;1300;25292;-87
2022/01/11 08:12:53;;;;;;;42.20;23.70;;;;;;;-2.08;67.66;102263.68;104070;1300;22596;-86
2022/01/11 08:15:20;;;;;;;45.50;23.60;;;;;;;-2.06;68.01;102263.62;104559;1300;24355;-82
2022/01/11 08:17:47;;;;;;;52.60;27.70;;;;;;;-2.05;67.84;102263.58;105433;1296;25418;-86
2022/01/11 08:20:17;;;;;;;43.00;23.70;;;;;;;-2.05;67.87;102262.02;105825;1297;23240;-85
2022/01/11 08:22:48;;;;;;;44.80;24.60;;;;;;;-2.08;67.54;102265.06;105562;1294;25982;-85
2022/01/11 08:25:17;;;;;;;45.20;24.40;;;;;;;-2.09;67.83;102264.61;105615;1294;22755;-89
2022/01/11 08:27:44;;;;;;;43.10;23.30;;;;;;;-2.08;67.87;102269.57;105493;1296;22524;-85
2022/01/11 08:30:11;;;;;;;43.40;25.40;;;;;;;-2.09;67.82;102272.75;106444;1285;22584;-85
2022/01/11 08:32:40;;;;;;;48.30;25.30;;;;;;;-2.12;67.75;102273.21;105748;1284;25225;-86
2022/01/11 08:35:09;;;;;;;51.80;27.80;;;;;;;-2.18;67.92;102270.06;105788;1283;22627;-85
2022/01/11 08:37:37;;;;;;;57.50;28.50;;;;;;;-2.09;68.26;102276.88;104853;1288;25328;-85
2022/01/11 08:40:04;;;;;;;51.60;26.80;;;;;;;-2.02;68.22;102274.48;104730;1288;22557;-84
2022/01/11 08:42:31;;;;;;;48.50;25.80;;;;;;;-1.88;68.21;102276.49;104741;1292;25496;-86
2022/01/11 08:45:05;;;;;;;41.60;24.20;;;;;;;-1.83;68.17;102274.27;103949;1300;25463;-87
2022/01/11 08:47:35;;;;;;;45.40;25.80;;;;;;;-1.78;68.16;102269.14;104024;1297;22611;-85
2022/01/11 08:50:07;;;;;;;46.00;24.80;;;;;;;-1.75;67.86;102274.49;103938;1297;23326;-87
2022/01/11 08:52:42;;;;;;;49.40;25.40;;;;;;;-1.75;67.83;102277.42;104066;1297;22570;-86
2022/01/11 08:55:14;;;;;;;38.80;22.10;;;;;;;-1.75;67.73;102280.73;103762;1300;25347;-87
2022/01/11 08:57:42;;;;;;;44.00;24.30;;;;;;;-1.77;67.75;102280.20;103858;1300;22716;-84
2022/01/11 09:00:16;;;;;;;53.30;27.90;;;;;;;-1.90;67.45;102282.23;103948;1299;22645;-87
2022/01/11 09:02:48;;;;;;;44.40;24.80;;;;;;;-1.97;67.84;102280.54;104169;1290;22595;-87
2022/01/11 09:05:15;;;;;;;39.90;22.80;;;;;;;-1.91;68.38;102283.03;104725;1291;22933;-86
2022/01/11 09:07:43;;;;;;;41.90;23.70;;;;;;;-1.84;68.15;102285.05;105234;1290;22646;-86
2022/01/11 09:10:13;;;;;;;42.10;23.20;;;;;;;-1.91;67.86;102285.44;104805;1291;25403;-89
2022/01/11 09:12:41;;;;;;;42.00;21.60;;;;;;;-1.92;68.00;102285.19;104551;1290;22579;-85
2022/01/11 09:15:10;;;;;;;41.40;23.60;;;;;;;-1.87;68.19;102279.90;105278;1288;22748;-84
2022/01/11 09:17:37;;;;;;;35.90;20.20;;;;;;;-1.83;68.30;102275.30;105165;1287;23266;-87
2022/01/11 09:20:07;;;;;;;48.50;23.90;;;;;;;-1.74;68.37;102275.94;105186;1287;22594;-83
2022/01/11 09:22:34;;;;;;;54.10;28.40;;;;;;;-1.63;68.48;102277.91;105206;1287;25880;-85
2022/01/11 09:25:01;;;;;;;48.10;27.00;;;;;;;-1.56;68.17;102279.13;105129;1287;22541;-86
2022/01/11 09:27:32;;;;;;;40.10;22.60;;;;;;;-1.48;68.18;102275.36;105215;1288;24041;-84
2022/01/11 09:30:08;;;;;;;50.60;26.70;;;;;;;-1.38;68.07;102273.63;105080;1287;24702;-85
2022/01/11 09:32:37;;;;;;;45.70;24.70;;;;;;;-1.29;68.27;102274.63;105571;1282;23958;-84
2022/01/11 09:35:08;;;;;;;44.90;24.50;;;;;;;-1.17;68.13;102268.52;105618;1283;25339;-82
2022/01/11 09:37:36;;;;;;;36.80;21.70;;;;;;;-1.04;68.03;102262.98;105651;1282;22566;-86
2022/01/11 09:40:09;;;;;;;41.50;23.70;;;;;;;-1.00;67.73;102259.40;105420;1282;22596;-86
2022/01/11 09:42:39;;;;;;;;;;;;;;;-0.95;67.56;102265.48;105640;1284;22615;-87
2022/01/11 09:45:11;;;;;;;38.50;22.10;;;;;;;-0.88;67.45;102264.55;104978;1289;25519;-86
2022/01/11 09:47:42;;;;;;;34.60;20.70;;;;;;;-0.76;67.41;102265.00;105256;1288;24263;-87
2022/01/11 09:50:12;;;;;;;33.00;20.00;;;;;;;-0.66;66.99;102262.39;105720;1291;26738;-86
2022/01/11 09:52:45;;;;;;;35.30;20.80;;;;;;;-0.64;66.73;102264.77;105794;1294;25393;-86
2022/01/11 09:55:15;;;;;;;38.20;22.00;;;;;;;-0.58;66.83;102268.15;105841;1294;25460;-86
2022/01/11 09:57:42;;;;;;;30.60;19.30;;;;;;;-0.53;66.82;102269.84;106941;1294;25295;-84
2022/01/11 10:00:39;;;;;;;31.50;19.00;;;;;;;-0.55;66.51;102265.34;105852;1297;22614;-83
2022/01/11 10:03:18;;;;;;;35.50;21.20;;;;;;;-0.52;66.60;102267.45;105089;1297;25372;-84
2022/01/11 10:05:50;;;;;;;42.20;24.00;;;;;;;-0.46;66.62;102268.00;105175;1297;25276;-84
2022/01/11 10:08:25;;;;;;;32.80;20.40;;;;;;;-0.44;66.42;102273.70;105204;1297;25420;-84
2022/01/11 10:10:54;;;;;;;35.80;22.10;;;;;;;-0.46;66.23;102273.73;105159;1294;22690;-84
2022/01/11 10:13:37;;;;;;;42.40;24.60;;;;;;;-0.47;66.43;102271.94;104951;1294;22659;-85
2022/01/11 10:16:25;;;;;;;45.20;23.20;;;;;;;-0.43;66.48;102272.54;104738;1292;25432;-88
2022/01/11 10:18:56;;;;;;;36.70;21.30;;;;;;;-0.43;66.55;102278.44;105054;1283;25318;-84
2022/01/11 10:21:39;;;;;;;36.60;21.60;;;;;;;-0.52;66.24;102277.89;105734;1282;25275;-91
2022/01/11 10:24:26;;;;;;;36.90;22.40;;;;;;;-0.59;66.47;102274.99;105675;1282;23770;-86
2022/01/11 10:26:56;;;;;;;34.90;20.60;;;;;;;-0.68;66.39;102279.75;105442;1282;22570;-84
2022/01/11 10:29:49;;;;;;;40.30;24.70;;;;;;;-0.79;66.48;102278.66;104935;1287;25611;-88
2022/01/11 10:32:39;;;;;;;34.70;21.90;;;;;;;-0.88;66.84;102280.98;105007;1288;22699;-89
2022/01/11 10:35:31;;;;;;;39.20;23.10;;;;;;;-0.86;67.15;102282.52;105004;1290;22718;-86
2022/01/11 10:38:31;;;;;;;34.90;22.70;;;;;;;-0.79;67.33;102276.27;107161;1287;22573;-86
2022/01/11 10:41:06;;;;;;;39.50;22.70;;;;;;;-0.69;67.16;102276.40;107361;1287;22708;-86
2022/01/11 10:43:43;;;;;;;38.40;21.70;;;;;;;-0.70;66.98;102273.03;106833;1297;23913;-87
2022/01/11 10:46:18;;;;;;;33.10;18.60;;;;;;;-0.76;66.62;102274.38;106776;1296;22653;-87
2022/01/11 10:49:05;;;;;;;35.50;22.70;;;;;;;-0.99;66.89;102272.48;107697;1290;22793;-86
2022/01/11 10:51:32;;;;;;;36.10;22.00;;;;;;;-0.91;67.44;102279.06;107205;1290;22791;-87
2022/01/11 10:54:00;;;;;;;39.30;22.70;;;;;;;-0.87;67.38;102279.48;107373;1290;23458;-86
2022/01/11 10:56:41;;;;;;;34.00;20.80;;;;;;;-0.84;67.56;102275.61;107152;1290;22763;-91
2022/01/11 10:59:10;;;;;;;32.70;20.80;;;;;;;-0.74;67.70;102284.71;105183;1291;25518;-86
2022/01/11 11:01:44;;;;;;;40.60;23.90;;;;;;;-0.67;67.42;102281.36;104649;1288;22774;-85
2022/01/11 11:04:30;;;;;;;33.90;20.80;;;;;;;-0.61;67.51;102286.46;104450;1294;25360;-88
2022/01/11 11:07:14;;;;;;;;;;;;;;;-0.71;66.91;102286.45;104613;1293;22815;-89
2022/01/11 11:09:54;;;;;;;34.90;21.70;;;;;;;-0.84;67.31;102293.21;104476;1294;25624;-85
2022/01/11 11:12:23;;;;;;;37.80;23.80;;;;;;;-0.96;67.43;102287.17;104369;1294;22566;-86
2022/01/11 11:15:03;;;;;;;36.00;22.40;;;;;;;-0.92;68.02;102285.55;104532;1294;22610;-85
2022/01/11 11:17:37;;;;;;;35.40;20.50;;;;;;;-0.85;68.08;102288.49;104376;1293;22600;-85
2022/01/11 11:20:40;;;;;;;40.90;24.30;;;;;;;-0.74;67.88;102289.89;104839;1287;24989;-83
2022/01/11 11:23:06;;;;;;;42.80;25.70;;;;;;;-0.69;67.59;102289.38;105289;1282;25963;-86
2022/01/11 11:25:33;;;;;;;42.40;24.70;;;;;;;-0.62;67.73;102288.96;105300;1282;23201;-86
2022/01/11 11:28:02;;;;;;;40.50;24.40;;;;;;;-0.52;67.61;102283.39;105211;1282;24030;-87
2022/01/11 11:30:30;;;;;;;38.50;23.20;;;;;;;-0.42;67.45;102287.84;105492;1283;22520;-87
2022/01/11 11:32:57;;;;;;;39.30;24.20;;;;;;;-0.33;67.61;102288.59;105735;1282;22496;-85
2022/01/11 11:35:24;;;;;;;38.00;22.20;;;;;;;-0.31;67.11;102289.48;105529;1282;24343;-87